Time;durP1;ratioP1;P1;durP2;ratioP2;P2;SDS_P1;SDS_P2;PMS_P1;PMS_P2;Temp;Humidity;BMP_temperature;BMP_pressure;BME280_temperature;BME280_humidity;BME280_pressure;Samples;Min_cycle;Max_cycle;Signal;HPM_P1;HPM_P2
2022/03/01 00:00:06;;;;;;;19.40;7.57;;;;;;;1.26;55.46;151690.66;5068537;28;20445;-81
2022/03/01 00:02:47;;;;;;;15.50;8.00;;;;;;;1.19;55.88;151675.22;5068369;28;20456;-81
2022/03/01 00:05:23;;;;;;;10.43;7.30;;;;;;;1.23;55.98;151685.53;5068572;28;20437;-81
2022/03/01 00:07:59;;;;;;;9.40;6.20;;;;;;;1.15;56.69;151664.97;5063534;28;21166;-81
2022/03/01 00:10:34;;;;;;;9.73;7.40;;;;;;;1.10;56.38;151652.13;5064810;28;20587;-81
2022/03/01 00:13:12;;;;;;;13.03;8.37;;;;;;;1.04;57.37;151636.69;5047006;28;20467;-81
2022/03/01 00:15:47;;;;;;;15.47;8.47;;;;;;;1.04;57.08;151635.41;5066523;28;20453;-80
2022/03/01 00:18:23;;;;;;;17.80;8.90;;;;;;;0.98;57.85;151620.03;5051004;28;20442;-81
2022/03/01 00:20:58;;;;;;;13.30;7.60;;;;;;;0.94;58.05;151611.03;5062815;28;20450;-81
2022/03/01 00:23:34;;;;;;;12.87;7.57;;;;;;;0.97;58.25;151618.72;5049390;28;20449;-81
2022/03/01 00:26:10;;;;;;;10.37;7.43;;;;;;;0.83;58.52;151582.75;5064888;28;20457;-81
2022/03/01 00:28:47;;;;;;;11.83;7.53;;;;;;;0.78;59.41;151569.91;5062126;28;20440;-80
2022/03/01 00:31:22;;;;;;;12.57;7.77;;;;;;;0.85;59.31;151587.88;5066522;28;20447;-81
2022/03/01 00:33:58;;;;;;;11.90;8.37;;;;;;;0.75;60.24;151560.91;5063870;28;20446;-81
2022/03/01 00:36:36;;;;;;;9.77;7.33;;;;;;;0.75;59.87;151562.22;5065234;28;20429;-81
2022/03/01 00:39:12;;;;;;;15.10;8.40;;;;;;;0.72;60.17;151554.50;5065885;28;20436;-81
2022/03/01 00:41:48;;;;;;;11.43;7.00;;;;;;;0.68;60.26;151544.25;5066554;28;20534;-81
2022/03/01 00:44:25;;;;;;;12.80;7.27;;;;;;;0.66;60.50;151539.13;5045509;28;20809;-80
2022/03/01 00:47:01;;;;;;;12.93;7.90;;;;;;;0.63;60.34;151530.13;5050403;28;20968;-81
2022/03/01 00:49:36;;;;;;;11.50;7.40;;;;;;;0.56;60.39;151514.69;5043334;28;20485;-81
2022/03/01 00:52:12;;;;;;;13.60;8.93;;;;;;;0.58;61.11;151519.81;5045552;28;20464;-81
2022/03/01 00:54:48;;;;;;;10.80;7.10;;;;;;;0.57;60.74;151517.28;5049419;28;20435;-81
2022/03/01 00:57:24;;;;;;;10.90;7.97;;;;;;;0.58;60.64;151519.81;5045267;28;20454;-80
2022/03/01 01:00:02;;;;;;;13.70;8.67;;;;;;;0.50;61.13;151498.03;5038172;28;20441;-80
2022/03/01 01:02:37;;;;;;;11.73;7.60;;;;;;;0.60;61.02;151523.72;5047934;28;20454;-81
2022/03/01 01:05:13;;;;;;;11.60;7.43;;;;;;;0.49;61.23;151496.75;5044163;28;20555;-80
2022/03/01 01:07:48;;;;;;;10.00;7.27;;;;;;;0.50;61.79;151498.03;5044447;28;20480;-81
2022/03/01 01:10:24;;;;;;;11.97;7.70;;;;;;;0.49;61.77;151496.75;5039991;28;20489;-80
2022/03/01 01:13:00;;;;;;;11.03;6.90;;;;;;;0.43;61.97;151480.03;5045587;28;20778;-81
2022/03/01 01:15:37;;;;;;;12.13;7.97;;;;;;;0.38;62.07;151467.19;5044070;28;20445;-81
2022/03/01 01:18:13;;;;;;;13.03;8.50;;;;;;;0.31;62.13;151449.25;5045620;28;20494;-81
2022/03/01 01:20:48;;;;;;;11.27;7.83;;;;;;;0.31;63.10;151449.25;5046765;28;20977;-81
2022/03/01 01:23:24;;;;;;;10.80;7.63;;;;;;;0.35;62.90;151459.50;5032924;28;20543;-81
2022/03/01 01:26:00;;;;;;;12.93;8.10;;;;;;;0.31;63.62;151449.25;5044037;28;20434;-81
2022/03/01 01:28:35;;;;;;;12.10;8.30;;;;;;;0.40;63.32;151472.31;5044036;28;20516;-81
2022/03/01 01:31:12;;;;;;;12.63;8.97;;;;;;;0.34;63.74;151456.97;5043726;28;20448;-81
2022/03/01 01:33:47;;;;;;;14.90;8.90;;;;;;;0.37;63.44;151464.66;5044026;28;20456;-81
2022/03/01 01:36:25;;;;;;;13.60;7.20;;;;;;;0.34;63.84;151458.25;5031998;28;20450;-81
2022/03/01 01:39:01;;;;;;;10.47;7.87;;;;;;;0.35;63.35;151459.50;5046417;28;20548;-81
2022/03/01 01:41:36;;;;;;;13.50;7.63;;;;;;;0.32;63.49;151453.06;5049921;28;20779;-81
2022/03/01 01:44:12;;;;;;;11.83;7.40;;;;;;;0.35;63.04;151460.78;5045209;28;20448;-80
2022/03/01 01:46:49;;;;;;;17.53;8.30;;;;;;;0.36;63.40;151462.09;5044797;28;20560;-81
2022/03/01 01:49:25;;;;;;;11.97;8.37;;;;;;;0.25;63.58;151435.13;5030958;28;20467;-81
2022/03/01 01:52:01;;;;;;;9.60;6.93;;;;;;;0.23;63.29;151430.00;5047102;28;20447;-81
2022/03/01 01:54:36;;;;;;;10.77;7.47;;;;;;;0.24;64.19;151432.53;5031781;28;20444;-81
2022/03/01 01:57:16;;;;;;;11.83;7.80;;;;;;;0.24;64.04;151431.28;5045595;28;20771;-81
2022/03/01 01:59:53;;;;;;;12.80;8.63;;;;;;;0.22;64.65;151427.41;5028656;28;21660;-81
2022/03/01 02:02:30;;;;;;;13.07;8.80;;;;;;;0.27;64.13;151440.25;5044850;28;20462;-81
2022/03/01 02:05:07;;;;;;;12.90;7.50;;;;;;;0.17;64.18;151413.28;5043011;28;20457;-80
2022/03/01 02:07:48;;;;;;;13.17;8.33;;;;;;;0.17;64.43;151413.28;5033632;28;20483;-80
2022/03/01 02:10:23;;;;;;;11.40;7.33;;;;;;;0.12;64.77;151400.47;5046363;28;20457;-81
2022/03/01 02:12:59;;;;;;;12.43;7.20;;;;;;;0.13;65.01;151403.06;5048567;28;20457;-80
2022/03/01 02:15:36;;;;;;;12.20;8.30;;;;;;;0.02;64.79;151376.09;5046952;28;20438;-80
2022/03/01 02:18:13;;;;;;;12.67;7.77;;;;;;;0.02;64.68;151374.81;5041295;28;20452;-80
2022/03/01 02:20:50;;;;;;;12.03;8.20;;;;;;;-0.14;64.90;151336.34;5047706;28;20479;-80
2022/03/01 02:23:26;;;;;;;13.70;7.97;;;;;;;-0.03;64.60;151363.28;5038251;28;20447;-80
2022/03/01 02:26:01;;;;;;;9.93;7.43;;;;;;;-0.09;64.49;151347.88;5046714;28;20451;-80
2022/03/01 02:28:37;;;;;;;11.93;7.40;;;;;;;-0.06;65.15;151355.56;5042037;28;20471;-80
2022/03/01 02:31:13;;;;;;;11.70;7.70;;;;;;;-0.19;65.07;151322.22;5050186;28;20443;-80
2022/03/01 02:33:48;;;;;;;14.97;7.40;;;;;;;-0.19;65.74;151323.50;5052219;28;20933;-80
2022/03/01 02:36:25;;;;;;;13.53;8.50;;;;;;;-0.13;65.28;151338.88;5049465;28;20510;-80
2022/03/01 02:39:00;;;;;;;13.03;8.30;;;;;;;-0.20;65.92;151320.91;5027592;28;20441;-80
2022/03/01 02:41:38;;;;;;;14.90;8.23;;;;;;;-0.25;65.94;151308.09;5049215;28;20793;-81
2022/03/01 02:44:14;;;;;;;12.27;6.93;;;;;;;-0.32;65.38;151290.09;5032042;28;20677;-80
2022/03/01 02:46:50;;;;;;;13.00;8.30;;;;;;;-0.33;65.88;151287.56;5048283;28;20443;-80
2022/03/01 02:49:26;;;;;;;11.20;7.93;;;;;;;-0.26;66.11;151305.50;5039991;28;21012;-80
2022/03/01 02:52:03;;;;;;;14.73;8.40;;;;;;;-0.25;66.01;151308.09;5067903;28;20447;-80
2022/03/01 02:54:39;;;;;;;13.10;8.53;;;;;;;-0.38;66.61;151274.75;5068762;28;20455;-80
2022/03/01 02:57:15;;;;;;;12.50;8.30;;;;;;;-0.42;66.82;151264.47;5068375;28;20447;-80
2022/03/01 02:59:50;;;;;;;12.90;8.70;;;;;;;-0.58;66.94;151223.41;5071677;28;20434;-81
2022/03/01 03:02:26;;;;;;;11.57;7.63;;;;;;;-0.51;67.04;151241.41;5069336;28;20443;-80
2022/03/01 03:05:02;;;;;;;13.07;8.57;;;;;;;-0.52;66.44;151237.53;5066772;28;20447;-80
2022/03/01 03:07:39;;;;;;;11.73;7.53;;;;;;;-0.51;66.06;151241.41;5069325;28;20572;-80
2022/03/01 03:10:14;;;;;;;11.97;7.60;;;;;;;-0.42;66.43;151264.47;5066710;28;20456;-81
2022/03/01 03:12:50;;;;;;;11.50;7.80;;;;;;;-0.55;66.47;151231.13;5047197;28;20454;-80
2022/03/01 03:15:27;;;;;;;12.97;7.40;;;;;;;-0.47;66.08;151251.63;5066064;28;20436;-80
2022/03/01 03:18:03;;;;;;;12.40;7.80;;;;;;;-0.51;66.09;151240.09;5066670;28;20459;-80
2022/03/01 03:20:38;;;;;;;11.63;7.77;;;;;;;-0.45;66.28;151256.75;5068654;28;20440;-80
2022/03/01 03:23:16;;;;;;;12.63;7.73;;;;;;;-0.49;65.67;151246.53;5068716;28;20455;-80
2022/03/01 03:25:52;;;;;;;9.97;7.43;;;;;;;-0.69;66.50;151195.25;5051401;28;20442;-80
2022/03/01 03:28:27;;;;;;;10.87;7.50;;;;;;;-0.67;66.18;151201.66;5037871;28;20477;-80
2022/03/01 03:31:03;;;;;;;10.90;8.50;;;;;;;-0.74;66.56;151182.38;5068594;28;20434;-80
2022/03/01 03:33:38;;;;;;;9.70;7.67;;;;;;;-0.71;66.41;151190.06;5065345;28;20518;-80
2022/03/01 03:36:14;;;;;;;10.13;7.13;;;;;;;-0.66;66.43;151202.88;5065449;28;20457;-80
2022/03/01 03:38:51;;;;;;;13.00;7.70;;;;;;;-0.57;65.97;151224.69;5066913;28;20448;-80
2022/03/01 03:41:27;;;;;;;13.60;7.90;;;;;;;-0.54;65.72;151232.41;5065106;28;20435;-80
2022/03/01 03:44:03;;;;;;;11.40;7.37;;;;;;;-0.55;65.57;151229.81;5068056;28;20442;-80
2022/03/01 03:46:38;;;;;;;10.77;6.93;;;;;;;-0.54;65.32;151233.69;5047126;28;20544;-80
2022/03/01 03:49:14;;;;;;;10.10;7.17;;;;;;;-0.64;65.87;151208.06;5059597;28;20976;-80
2022/03/01 03:51:50;;;;;;;10.50;6.93;;;;;;;-0.75;66.41;151181.13;5031941;28;20460;-80
2022/03/01 03:54:27;;;;;;;16.53;7.40;;;;;;;-0.81;66.09;151164.44;5029107;28;20820;-80
2022/03/01 03:57:07;;;;;;;13.80;8.70;;;;;;;-0.72;65.95;151187.53;5043124;28;20481;-81
2022/03/01 03:59:43;;;;;;;12.80;7.30;;;;;;;-0.82;66.38;151163.16;5045767;28;20788;-80
2022/03/01 04:02:18;;;;;;;9.67;7.03;;;;;;;-0.79;66.29;151169.56;5048195;28;20462;-80
2022/03/01 04:04:54;;;;;;;9.37;6.60;;;;;;;-0.77;66.14;151174.72;5049933;28;20780;-80
2022/03/01 04:07:30;;;;;;;15.37;7.57;;;;;;;-0.76;66.42;151178.53;5048892;28;20475;-78
2022/03/01 04:10:09;;;;;;;12.03;7.60;;;;;;;-0.79;66.09;151169.56;5045857;28;20473;-79
2022/03/01 04:12:44;;;;;;;13.23;8.20;;;;;;;-0.88;66.17;151146.50;5046797;28;20549;-78
2022/03/01 04:15:20;;;;;;;11.10;7.90;;;;;;;-0.94;66.17;151131.09;5048970;28;20528;-79
2022/03/01 04:17:55;;;;;;;11.63;7.60;;;;;;;-0.95;66.96;151128.50;5044815;28;20450;-79
2022/03/01 04:20:31;;;;;;;16.43;7.50;;;;;;;-0.99;66.22;151119.56;5029567;28;20455;-78
2022/03/01 04:23:07;;;;;;;10.87;7.40;;;;;;;-1.01;66.93;151113.16;5043053;28;20489;-78
2022/03/01 04:25:44;;;;;;;13.80;7.67;;;;;;;-1.06;66.87;151100.34;5030753;28;20463;-78
2022/03/01 04:28:20;;;;;;;10.83;6.63;;;;;;;-0.98;66.38;151120.88;5046882;28;20475;-80
2022/03/01 04:30:56;;;;;;;12.47;8.23;;;;;;;-1.05;67.15;151102.88;5045223;28;20854;-80
2022/03/01 04:33:31;;;;;;;17.73;7.30;;;;;;;-1.06;66.94;151100.34;5040503;28;20537;-80
2022/03/01 04:36:07;;;;;;;12.20;6.57;;;;;;;-1.03;66.55;151108.06;5020906;28;20413;-80
2022/03/01 04:38:42;;;;;;;10.47;6.60;;;;;;;-1.09;66.86;151092.66;5043510;28;20545;-80
2022/03/01 04:41:19;;;;;;;9.27;5.90;;;;;;;-1.09;66.51;151093.94;5025701;28;20965;-80
2022/03/01 04:43:55;;;;;;;11.57;6.20;;;;;;;-1.05;66.55;151102.88;5046744;28;20434;-80
2022/03/01 04:46:30;;;;;;;14.00;8.77;;;;;;;-1.17;66.47;151072.13;5049054;28;20768;-80
2022/03/01 04:49:06;;;;;;;11.83;6.63;;;;;;;-1.13;66.82;151082.38;5052273;28;21093;-80
2022/03/01 04:51:42;;;;;;;15.27;7.80;;;;;;;-1.10;66.66;151090.06;5043795;28;20473;-80
2022/03/01 04:54:17;;;;;;;11.43;7.47;;;;;;;-1.12;66.79;151086.25;5049733;28;20913;-80
2022/03/01 04:56:54;;;;;;;10.17;6.90;;;;;;;-1.09;66.01;151092.66;5063628;28;20475;-79
2022/03/01 04:59:30;;;;;;;10.80;6.37;;;;;;;-1.16;66.72;151075.97;5058669;28;20469;-79
2022/03/01 05:02:06;;;;;;;13.17;7.90;;;;;;;-1.17;67.17;151072.13;5066788;28;20445;-80
2022/03/01 05:04:41;;;;;;;13.73;8.33;;;;;;;-1.19;66.93;151068.28;5066370;28;20442;-79
2022/03/01 05:07:18;;;;;;;9.40;7.27;;;;;;;-1.29;66.91;151043.94;5062564;28;20996;-79
2022/03/01 05:09:54;;;;;;;8.90;5.73;;;;;;;-1.25;66.90;151054.22;5062333;28;20445;-80
2022/03/01 05:12:31;;;;;;;13.77;7.40;;;;;;;-1.32;67.01;151034.94;5065286;28;20486;-79
2022/03/01 05:15:07;;;;;;;13.73;7.73;;;;;;;-1.23;66.64;151058.03;5058332;28;20445;-79
2022/03/01 05:17:44;;;;;;;8.23;6.13;;;;;;;-1.31;67.00;151037.53;5065251;28;20538;-80
2022/03/01 05:20:20;;;;;;;12.27;8.00;;;;;;;-1.24;66.54;151055.44;5066298;28;20443;-80
2022/03/01 05:22:56;;;;;;;11.60;7.27;;;;;;;-1.27;66.85;151049.06;5050836;28;20439;-80
2022/03/01 05:25:31;;;;;;;13.17;7.57;;;;;;;-1.41;66.97;151013.19;5055196;28;20796;-80
2022/03/01 05:28:08;;;;;;;11.80;7.67;;;;;;;-1.36;67.35;151026.00;5046412;28;20569;-80
2022/03/01 05:30:44;;;;;;;11.70;6.90;;;;;;;-1.38;67.67;151020.84;5062491;28;20510;-79
2022/03/01 05:33:20;;;;;;;10.70;7.77;;;;;;;-1.48;67.56;150995.22;5060790;28;20808;-79
2022/03/01 05:35:56;;;;;;;9.70;7.67;;;;;;;-1.54;68.02;150979.88;5065198;28;20468;-79
2022/03/01 05:38:31;;;;;;;13.37;8.20;;;;;;;-1.54;67.63;150979.88;5065065;28;20777;-79
2022/03/01 05:41:08;;;;;;;13.23;7.83;;;;;;;-1.53;67.17;150981.13;5063697;28;20446;-79
2022/03/01 05:43:45;;;;;;;10.67;7.63;;;;;;;-1.42;67.14;151010.63;5065200;28;20442;-79
2022/03/01 05:46:21;;;;;;;13.57;8.17;;;;;;;-1.47;67.06;150997.81;5047441;28;20809;-79
2022/03/01 05:48:56;;;;;;;10.43;6.73;;;;;;;-1.36;66.73;151026.00;5063399;28;20474;-79
2022/03/01 05:51:32;;;;;;;11.40;7.40;;;;;;;-1.43;66.21;151008.03;5066417;28;20893;-79
2022/03/01 05:54:07;;;;;;;11.50;7.97;;;;;;;-1.47;66.72;150996.50;5064085;28;20455;-79
2022/03/01 05:56:43;;;;;;;11.30;8.00;;;;;;;-1.49;66.44;150991.41;5076764;28;20449;-79
2022/03/01 05:59:21;;;;;;;11.07;6.77;;;;;;;-1.34;66.05;151029.84;5061218;28;20462;-80
2022/03/01 06:01:56;;;;;;;13.33;8.13;;;;;;;-1.40;66.21;151015.72;5049418;28;20453;-80
2022/03/01 06:04:32;;;;;;;10.77;7.70;;;;;;;-1.43;66.72;151008.03;5063042;28;20463;-80
2022/03/01 06:07:07;;;;;;;11.47;8.00;;;;;;;-1.47;66.29;150997.81;5069000;28;20437;-79
2022/03/01 06:09:43;;;;;;;17.00;8.07;;;;;;;-1.52;66.82;150985.00;5068341;28;20847;-79
2022/03/01 06:12:18;;;;;;;10.67;7.90;;;;;;;-1.51;66.68;150987.53;5050178;28;20450;-80
2022/03/01 06:14:55;;;;;;;11.37;7.93;;;;;;;-1.45;66.58;151002.91;5069611;28;20447;-79
2022/03/01 06:17:31;;;;;;;9.63;7.47;;;;;;;-1.60;67.04;150963.19;5081593;28;20446;-79
2022/03/01 06:20:08;;;;;;;13.70;8.33;;;;;;;-1.60;67.24;150964.50;5046052;28;20445;-79
2022/03/01 06:22:45;;;;;;;12.10;8.00;;;;;;;-1.63;67.75;150956.78;5057188;28;20448;-80
2022/03/01 06:25:20;;;;;;;14.60;8.27;;;;;;;-1.60;67.79;150964.50;5055876;28;20452;-79
2022/03/01 06:27:56;;;;;;;10.87;7.50;;;;;;;-1.57;68.06;150972.19;5053463;28;20437;-80
2022/03/01 06:30:33;;;;;;;14.50;7.47;;;;;;;-1.50;67.38;150988.81;5067434;28;20442;-79
2022/03/01 06:33:08;;;;;;;11.27;8.00;;;;;;;-1.45;67.39;151002.91;5069857;28;20439;-79
2022/03/01 06:35:45;;;;;;;13.40;8.70;;;;;;;-1.34;67.43;151031.13;5061724;28;20457;-80
2022/03/01 06:38:20;;;;;;;10.20;6.97;;;;;;;-1.14;67.07;151079.84;5071013;28;20449;-79
2022/03/01 06:40:56;;;;;;;14.00;8.10;;;;;;;-1.13;66.33;151082.38;5068816;28;20457;-80
2022/03/01 06:43:32;;;;;;;14.07;9.30;;;;;;;-1.03;65.85;151109.28;5069192;28;20449;-80
2022/03/01 06:46:09;;;;;;;13.07;7.97;;;;;;;-0.96;65.58;151125.97;5055846;28;20831;-79
2022/03/01 06:48:45;;;;;;;12.40;8.90;;;;;;;-0.90;65.93;151142.63;5052277;28;20482;-79
2022/03/01 06:51:32;;;;;;;11.77;6.53;;;;;;;-0.88;65.74;151146.50;5078569;28;20455;-78
2022/03/01 06:54:07;;;;;;;15.30;8.70;;;;;;;-0.88;65.96;151146.50;5060117;28;20475;-80
2022/03/01 06:56:43;;;;;;;10.97;8.40;;;;;;;-0.63;64.88;151210.59;5086212;28;21012;-80
2022/03/01 06:59:19;;;;;;;13.70;8.10;;;;;;;-0.40;64.72;151268.34;5077001;28;20513;-80
2022/03/01 07:01:56;;;;;;;12.17;8.50;;;;;;;-0.12;64.78;151341.44;5051296;28;20449;-84
2022/03/01 07:04:32;;;;;;;14.07;8.97;;;;;;;0.14;62.85;151406.88;5060595;28;20756;-80
2022/03/01 07:07:09;;;;;;;12.37;7.57;;;;;;;0.29;60.81;151444.13;5073609;28;20459;-80
2022/03/01 07:09:44;;;;;;;13.13;8.37;;;;;;;0.38;61.40;151467.19;5070651;28;20467;-81
2022/03/01 07:12:20;;;;;;;12.17;8.23;;;;;;;0.49;61.02;151495.44;5090211;28;20455;-81
2022/03/01 07:14:55;;;;;;;13.23;9.87;;;;;;;0.74;61.91;151559.66;5073350;28;20953;-81
2022/03/01 07:17:32;;;;;;;11.30;8.33;;;;;;;1.02;59.38;151631.56;5080525;28;20433;-79
2022/03/01 07:20:09;;;;;;;14.63;9.57;;;;;;;1.10;58.73;151652.13;5083629;28;20552;-81
2022/03/01 07:22:44;;;;;;;12.97;9.40;;;;;;;1.07;59.11;151644.41;5063765;28;20457;-81
2022/03/01 07:25:20;;;;;;;12.60;8.37;;;;;;;1.24;58.70;151688.06;5047232;28;20448;-79
2022/03/01 07:27:56;;;;;;;11.43;8.20;;;;;;;1.56;57.27;151767.75;5088663;28;20874;-80
2022/03/01 07:30:32;;;;;;;13.70;9.00;;;;;;;1.51;57.41;151754.91;5089695;28;20894;-80
2022/03/01 07:33:09;;;;;;;12.27;8.33;;;;;;;1.41;56.79;151730.47;5054045;28;20432;-81
2022/03/01 07:35:45;;;;;;;13.83;8.47;;;;;;;1.44;56.74;151738.19;5076526;28;20450;-81
2022/03/01 07:38:21;;;;;;;11.03;8.50;;;;;;;1.50;56.58;151752.31;5049084;28;20546;-81
2022/03/01 07:40:56;;;;;;;10.83;8.20;;;;;;;1.70;55.60;151803.69;5063498;28;20803;-80
2022/03/01 07:43:32;;;;;;;17.27;9.97;;;;;;;1.88;55.15;151849.97;5066295;28;20446;-81
2022/03/01 07:46:13;;;;;;;14.87;9.43;;;;;;;1.74;56.71;151814.00;5084985;28;20545;-81
2022/03/01 07:48:49;;;;;;;12.50;8.73;;;;;;;1.69;55.91;151801.16;5070045;28;20482;-79
2022/03/01 07:51:25;;;;;;;12.47;8.80;;;;;;;1.93;53.76;151862.88;5051937;28;20448;-81
2022/03/01 07:54:01;;;;;;;12.40;8.57;;;;;;;2.07;54.19;151898.81;5083484;28;20443;-81
2022/03/01 07:56:36;;;;;;;13.30;8.50;;;;;;;2.07;54.41;151897.53;5068408;28;20439;-82
2022/03/01 07:59:12;;;;;;;28.17;10.20;;;;;;;2.43;54.36;151990.13;5057508;28;20446;-81
2022/03/01 08:01:47;;;;;;;11.43;7.67;;;;;;;2.37;54.24;151976.00;5065944;28;20450;-80
2022/03/01 08:04:24;;;;;;;15.07;8.33;;;;;;;2.46;53.74;151997.84;5070046;28;20448;-81
2022/03/01 08:07:00;;;;;;;11.63;8.80;;;;;;;2.64;52.74;152044.16;5069486;28;20444;-81
2022/03/01 08:09:35;;;;;;;10.13;8.67;;;;;;;2.71;53.23;152060.84;5074011;28;20570;-81
2022/03/01 08:12:12;;;;;;;11.23;8.63;;;;;;;2.94;52.42;152120.00;5054076;28;20527;-81
2022/03/01 08:14:47;;;;;;;12.90;8.73;;;;;;;2.71;51.54;152060.84;5054879;28;20594;-79
2022/03/01 08:17:23;;;;;;;15.70;9.67;;;;;;;2.57;52.57;152026.13;5069194;28;20547;-80
2022/03/01 08:20:00;;;;;;;11.87;8.73;;;;;;;2.71;52.31;152060.84;5084846;28;20476;-80
2022/03/01 08:22:36;;;;;;;12.87;9.03;;;;;;;2.72;52.21;152063.44;5068237;28;20440;-81
2022/03/01 08:25:12;;;;;;;13.40;9.57;;;;;;;2.97;51.21;152127.75;5088193;28;20459;-80
2022/03/01 08:27:48;;;;;;;11.17;9.70;;;;;;;3.21;51.22;152188.22;5055100;28;20541;-80
2022/03/01 08:30:24;;;;;;;15.27;11.20;;;;;;;3.06;51.78;152152.22;5070164;28;20475;-80
2022/03/01 08:32:59;;;;;;;15.63;10.77;;;;;;;3.10;51.25;152161.19;5060767;28;20464;-80
2022/03/01 08:35:37;;;;;;;16.70;9.37;;;;;;;3.08;50.69;152157.34;5063117;28;20568;-80
2022/03/01 08:38:12;;;;;;;14.03;9.73;;;;;;;2.83;51.13;152091.75;5068925;28;20452;-81
2022/03/01 08:40:48;;;;;;;12.83;9.63;;;;;;;2.99;50.20;152132.91;5058608;28;20448;-80
2022/03/01 08:43:25;;;;;;;12.03;9.00;;;;;;;2.67;50.88;152050.56;5065682;28;20776;-80
2022/03/01 08:46:01;;;;;;;13.13;8.90;;;;;;;2.86;51.22;152099.47;5048759;28;20577;-81
2022/03/01 08:48:36;;;;;;;14.63;9.37;;;;;;;2.81;52.17;152086.56;5046318;28;20460;-81
2022/03/01 08:51:13;;;;;;;12.73;8.93;;;;;;;2.65;50.02;152046.69;5067943;28;20445;-81
2022/03/01 08:53:50;;;;;;;16.63;9.40;;;;;;;2.54;51.19;152017.16;5047166;28;20452;-80
2022/03/01 08:56:26;;;;;;;12.57;7.63;;;;;;;2.43;51.84;151991.44;5053036;28;20447;-80
2022/03/01 08:59:02;;;;;;;12.47;8.67;;;;;;;2.41;51.47;151986.25;5047501;28;20483;-80
2022/03/01 09:01:38;;;;;;;12.57;8.43;;;;;;;2.28;51.42;151952.81;5067011;28;20440;-81
2022/03/01 09:04:14;;;;;;;12.77;8.87;;;;;;;2.31;51.61;151960.53;5070245;28;20447;-81
2022/03/01 09:06:50;;;;;;;16.50;9.27;;;;;;;2.24;51.67;151942.56;5048420;28;20456;-81
2022/03/01 09:09:26;;;;;;;13.20;8.80;;;;;;;2.63;52.34;152041.56;5053186;28;21028;-80
2022/03/01 09:12:02;;;;;;;11.63;8.23;;;;;;;2.81;50.76;152086.56;5069343;28;20978;-80
2022/03/01 09:14:37;;;;;;;12.27;8.90;;;;;;;2.47;51.32;152000.41;5068699;28;20459;-80
2022/03/01 09:17:13;;;;;;;10.73;8.53;;;;;;;2.55;51.25;152019.69;5068082;28;21716;-80
2022/03/01 09:19:49;;;;;;;15.10;9.07;;;;;;;2.30;51.09;151957.94;5068783;28;20529;-80
2022/03/01 09:22:26;;;;;;;10.50;7.80;;;;;;;2.24;52.16;151942.56;5054102;28;20552;-80
2022/03/01 09:25:04;;;;;;;12.23;8.30;;;;;;;2.40;51.81;151982.41;5066127;28;20446;-80
2022/03/01 09:27:39;;;;;;;12.07;8.97;;;;;;;2.30;51.16;151957.94;5058935;28;20538;-79
2022/03/01 09:30:16;;;;;;;12.00;8.93;;;;;;;2.45;52.08;151996.56;5084137;28;20989;-80
2022/03/01 09:32:52;;;;;;;11.10;8.13;;;;;;;2.55;52.80;152019.69;5059041;28;20439;-80
2022/03/01 09:35:28;;;;;;;12.27;8.43;;;;;;;2.63;52.54;152040.25;5065248;28;20999;-80
2022/03/01 09:38:05;;;;;;;11.17;8.53;;;;;;;2.99;51.96;152132.91;5056395;28;20813;-80
2022/03/01 09:40:41;;;;;;;14.87;9.43;;;;;;;2.80;50.84;152085.31;5065013;28;20459;-80
2022/03/01 09:43:16;;;;;;;10.93;8.40;;;;;;;2.82;50.19;152090.44;5061804;28;20450;-80
2022/03/01 09:45:52;;;;;;;11.40;7.13;;;;;;;2.79;50.47;152081.44;5068613;28;20480;-80
2022/03/01 09:48:30;;;;;;;11.03;8.00;;;;;;;2.82;51.10;152089.16;5070325;28;20941;-80
2022/03/01 09:51:17;;;;;;;11.80;9.20;;;;;;;2.87;50.60;152102.00;5083425;28;20451;-80
2022/03/01 09:53:55;;;;;;;10.50;8.57;;;;;;;2.82;51.81;152089.16;5068145;28;20451;-80
2022/03/01 09:56:30;;;;;;;11.80;8.67;;;;;;;2.91;51.42;152112.34;5069681;28;21548;-80
2022/03/01 09:59:06;;;;;;;16.40;9.17;;;;;;;2.87;50.58;152102.00;5082525;28;20444;-80
2022/03/01 10:01:48;;;;;;;14.27;9.07;;;;;;;2.78;50.80;152078.88;5062310;28;20455;-80
2022/03/01 10:04:24;;;;;;;13.90;9.30;;;;;;;2.83;50.79;152091.75;5068049;28;20452;-80
2022/03/01 10:07:03;;;;;;;12.77;9.10;;;;;;;2.79;50.35;152081.44;5067417;28;20436;-80
2022/03/01 10:09:42;;;;;;;10.33;8.53;;;;;;;2.91;49.02;152112.34;5075585;28;20464;-80
2022/03/01 10:12:23;;;;;;;11.80;7.73;;;;;;;3.07;49.14;152153.50;5050403;28;20460;-80
2022/03/01 10:15:03;;;;;;;11.40;8.57;;;;;;;2.99;49.25;152132.91;5067527;28;20457;-80
2022/03/01 10:17:39;;;;;;;11.47;8.10;;;;;;;3.08;49.71;152157.34;5052722;28;20482;-80
2022/03/01 10:20:18;;;;;;;10.83;8.33;;;;;;;3.07;49.53;152154.75;5066331;28;20509;-80
2022/03/01 10:22:54;;;;;;;11.80;7.87;;;;;;;3.23;49.79;152194.63;5080776;28;20445;-80
2022/03/01 10:25:31;;;;;;;11.30;8.70;;;;;;;3.20;49.70;152185.66;5068253;28;20475;-80
2022/03/01 10:28:08;;;;;;;13.73;9.20;;;;;;;3.42;49.94;152242.25;5067748;28;20433;-80
2022/03/01 10:30:44;;;;;;;11.60;9.33;;;;;;;3.41;49.71;152239.72;5054377;28;20472;-80
2022/03/01 10:33:20;;;;;;;13.90;8.50;;;;;;;3.21;48.60;152188.22;5056081;28;20460;-80
2022/03/01 10:35:58;;;;;;;12.00;8.80;;;;;;;3.10;48.98;152159.94;5061402;28;20562;-80
2022/03/01 10:38:35;;;;;;;12.20;8.40;;;;;;;3.15;49.30;152174.03;5066566;28;20878;-80
2022/03/01 10:41:12;;;;;;;14.80;8.97;;;;;;;3.20;49.25;152186.97;5067120;28;20777;-80
2022/03/01 10:43:52;;;;;;;11.80;9.10;;;;;;;3.29;49.49;152210.09;5081592;28;20510;-80
2022/03/01 10:46:28;;;;;;;10.60;8.50;;;;;;;3.36;48.99;152228.09;5069309;28;20449;-80
2022/03/01 10:49:08;;;;;;;11.90;8.40;;;;;;;3.21;48.92;152189.50;5064638;28;20840;-80
2022/03/01 10:51:50;;;;;;;11.40;8.57;;;;;;;3.28;49.09;152206.25;5052625;28;20544;-80
2022/03/01 10:54:28;;;;;;;11.07;8.77;;;;;;;3.36;48.82;152226.84;5053809;28;20452;-80
2022/03/01 10:57:07;;;;;;;10.43;7.80;;;;;;;3.52;47.45;152269.28;5067674;28;20530;-80
2022/03/01 10:59:43;;;;;;;8.60;6.90;;;;;;;3.47;47.30;152256.44;5070200;28;20502;-80
2022/03/01 11:02:19;;;;;;;11.67;7.47;;;;;;;3.69;47.86;152311.78;5066560;28;20471;-80
2022/03/01 11:04:54;;;;;;;10.20;7.47;;;;;;;3.65;50.08;152302.75;5077395;28;21082;-80
2022/03/01 11:07:30;;;;;;;10.67;8.30;;;;;;;3.67;48.74;152306.66;5071583;28;20459;-80
2022/03/01 11:10:06;;;;;;;10.27;8.10;;;;;;;3.74;47.68;152324.66;5054467;28;20974;-79
2022/03/01 11:12:45;;;;;;;10.70;7.53;;;;;;;3.80;47.12;152338.81;5067442;28;20441;-79
2022/03/01 11:15:30;;;;;;;10.63;7.20;;;;;;;3.80;47.05;152338.81;5051524;28;20456;-80
2022/03/01 11:18:18;;;;;;;11.20;6.93;;;;;;;3.69;47.74;152313.09;5058412;28;20445;-80
2022/03/01 11:20:55;;;;;;;12.77;8.00;;;;;;;3.76;48.30;152328.53;5070091;28;20452;-80
2022/03/01 11:23:31;;;;;;;10.20;7.90;;;;;;;3.88;46.57;152359.44;5054276;28;20543;-80
2022/03/01 11:26:10;;;;;;;10.40;8.30;;;;;;;4.18;46.57;152437.97;5052780;28;20433;-80
2022/03/01 11:28:55;;;;;;;10.37;7.53;;;;;;;4.26;45.43;152457.31;5064933;28;20494;-80
2022/03/01 11:31:31;;;;;;;11.10;7.70;;;;;;;4.01;46.99;152392.91;5065659;28;20489;-80
2022/03/01 11:34:11;;;;;;;12.37;8.10;;;;;;;3.96;45.44;152380.03;5055762;28;20458;-79
2022/03/01 11:36:53;;;;;;;8.97;7.20;;;;;;;4.07;44.62;152408.38;5064039;28;20878;-79
2022/03/01 11:39:31;;;;;;;10.30;7.80;;;;;;;4.45;42.68;152506.22;5082445;28;20540;-80
2022/03/01 11:42:09;;;;;;;8.50;7.60;;;;;;;4.41;43.40;152494.66;5045282;28;20456;-80
2022/03/01 11:44:51;;;;;;;10.60;6.63;;;;;;;4.37;42.02;152485.63;5070965;28;20568;-80
2022/03/01 11:47:29;;;;;;;10.67;7.67;;;;;;;4.18;42.42;152437.97;5053683;28;20455;-80
2022/03/01 11:50:12;;;;;;;11.27;7.43;;;;;;;4.11;43.55;152418.66;5055106;28;20994;-80
2022/03/01 11:52:55;;;;;;;9.97;7.80;;;;;;;4.01;44.64;152394.19;5076755;28;20776;-79
2022/03/01 11:55:35;;;;;;;9.63;8.10;;;;;;;4.02;42.59;152395.50;5057510;28;20468;-80
2022/03/01 11:58:11;;;;;;;9.93;7.17;;;;;;;4.14;42.77;152426.38;5050721;28;20454;-80
2022/03/01 12:00:49;;;;;;;10.73;8.20;;;;;;;4.20;42.86;152441.84;5067700;28;20800;-80
2022/03/01 12:03:27;;;;;;;9.83;7.30;;;;;;;4.01;48.44;152392.91;5071046;28;21172;-80